メインページ
METAR-TAF:

METAR-TAF

空港 :

ロサンゼルス, カリフォルニア州, アメリカ合衆国

ロサンゼルス国際空港

緯度: 33-56-17N, 経度: 118-23-20W, 海抜: 38m

現時点の気象観測

当レポートは23分前の22:53(UTC)に作成
西の風 14kt
気温 19°C
湿度 64%
気圧 1018 hPa
視程: 16.1km
高度2500ftの雲はほとんどない

METAR: KLAX 272253Z 26014KT 10SM FEW025 19/12 A3005 RMK AO2 SLP174 T01940117

時間: 16:16 (23:16 UTC)

予報

当レポートは2時間16分前の21:00(UTC)に作成
予報は27日の 21時(UTC)から 28日の 24時(UTC)まで有効
西の風 14kt
視程: 10km
晴天
28日の 0300時(UTC)から
西の風 8kt
視程: 10km
晴天
28日の 0800時(UTC)から
変向風 3kt
視程: 10km
高度1200ftの曇り
28日の 1700時(UTC)から
西/南西の風 6kt
視程: 10km
高度1500ftの雲は散在している
28日の 2000時(UTC)から
西の風 12kt
視程: 10km
晴天

TAF: KLAX 272100Z 2721/2824 26014KT P6SM SKC FM280300 26008KT P6SM SKC FM280800 VRB03KT P6SM OVC012 FM281700 24006KT P6SM SCT015 FM282000 26012KT P6SM SKC

4,000以上の空港の気象観測と天気予報(METAR報とTAF報)

利用可能な観測所は地図上に黄色い丸と赤い丸で示す。

丸の上にカーソルを重ねると観測所名を参照できる。

次にクリックすると気象観測と天気予報を参照できる。

マップの切り替え:黒色「×」印の緑ボタンをクリックして拡大、「-」印の緑ボタンをクリックして縮小、緑色の三角印をクリックして隣りの地図に切り替え


METAR-TAF: